SCVD/ZAL METAR and TAF weather

Enter ICAO airport designator
Station Type Date Time Source
SCVD METAR 2022/12/10 03:00 UTC NOAA

SCVD 100300Z AUTO 32002KT 9999 NCD 12/12 Q1017


Station Type Date Time Source
SCVD Decoded METAR 2022/12/10 03:00 UTC NOAA

Valdivia, Chile (SCVD) 39-37S 073-05W
Dec 09, 2022 - 10:00 PM EST / 2022.12.10 0300 UTC
Wind: from the NW (320 degrees) at 2 MPH (2 KT):0
Visibility: greater than 7 mile(s):0
Temperature: 53 F (12 C)
Dew Point: 53 F (12 C)
Relative Humidity: 100%
Pressure (altimeter): 30.03 in. Hg (1017 hPa)
ob: SCVD 100300Z AUTO 32002KT 9999 NCD 12/12 Q1017
cycle: 3

Station Type Date Time Source
SCVD TAF 2022/12/09 18:33 UTC NOAA

TAF TAF SCVD 091630Z 0918/1006 28008KT 9999 SCT030 TX21/0919Z TN12/1006Z
BECMG 0919/0921 CAVOK
BECMG 1002/1004 VRB02KT 2000 BR SCT002

Example: see airport list